Time;durP1;ratioP1;P1;durP2;ratioP2;P2;SDS_P1;SDS_P2;PMS_P1;PMS_P2;Temp;Humidity;BMP_temperature;BMP_pressure;BME280_temperature;BME280_humidity;BME280_pressure;Samples;Min_cycle;Max_cycle;Signal;HPM_P1;HPM_P2
2022/11/10 00:00:15;;;;;;;13.60;2.97;;;;;;;;;;6177339;23;20017;-90
2022/11/10 00:02:44;;;;;;;9.13;2.15;;;;;;;;;;6150295;23;20024;-90
2022/11/10 00:05:11;;;;;;;14.60;2.50;;;;;;;;;;6154247;23;20017;-90
2022/11/10 00:07:37;;;;;;;13.98;2.70;;;;;;;;;;6178437;22;20646;-90
2022/11/10 00:10:04;;;;;;;16.45;2.53;;;;;;;;;;6151123;23;20079;-90
2022/11/10 00:12:31;;;;;;;13.07;2.95;;;;;;;;;;6177424;23;20650;-91
2022/11/10 00:17:41;;;;;;;13.10;2.47;;;;;;;;;;6175515;23;20044;-90
2022/11/10 00:20:08;;;;;;;20.52;3.47;;;;;;;;;;6154222;23;20504;-91
2022/11/10 00:22:35;;;;;;;9.50;2.70;;;;;;;;;;6173968;23;20005;-91
2022/11/10 00:25:01;;;;;;;17.75;2.75;;;;;;;;;;6177707;23;20088;-90
2022/11/10 00:27:27;;;;;;;11.02;2.70;;;;;;;;;;6153540;23;20433;-92
2022/11/10 00:29:53;;;;;;;24.45;3.20;;;;;;;;;;6176243;23;20043;-91
2022/11/10 00:32:19;;;;;;;17.17;2.90;;;;;;;;;;6151675;23;20009;-89
2022/11/10 00:34:45;;;;;;;18.48;3.10;;;;;;;;;;6175565;23;20112;-90
2022/11/10 00:37:11;;;;;;;12.00;2.47;;;;;;;;;;6151578;23;20009;-90
2022/11/10 00:39:37;;;;;;;15.07;3.28;;;;;;;;;;6175951;23;20004;-91
2022/11/10 00:42:03;;;;;;;19.80;3.25;;;;;;;;;;6149707;23;20023;-91
2022/11/10 00:44:30;;;;;;;17.38;3.17;;;;;;;;;;6151664;23;20024;-91
2022/11/10 00:46:56;;;;;;;25.23;3.55;;;;;;;;;;6175048;23;20013;-91
2022/11/10 00:49:22;;;;;;;12.57;3.75;;;;;;;;;;6149765;23;20013;-91
2022/11/10 00:51:48;;;;;;;15.73;2.15;;;;;;;;;;6153746;23;20016;-90
2022/11/10 00:54:14;;;;;;;20.92;3.60;;;;;;;;;;6150231;23;20090;-90
2022/11/10 00:56:40;;;;;;;13.07;3.38;;;;;;;;;;6151792;23;20009;-89
2022/11/10 00:59:06;;;;;;;12.88;2.95;;;;;;;;;;6150872;23;20020;-90
2022/11/10 01:01:33;;;;;;;21.45;4.60;;;;;;;;;;6176589;23;20009;-90
2022/11/10 01:03:59;;;;;;;12.27;2.72;;;;;;;;;;6176115;23;20019;-91
2022/11/10 01:06:25;;;;;;;9.25;2.97;;;;;;;;;;6152565;22;20040;-90
2022/11/10 01:08:58;;;;;;;10.60;1.98;;;;;;;;;;6154406;23;20029;-91
2022/11/10 01:11:25;;;;;;;24.98;3.42;;;;;;;;;;6150611;23;20009;-90
2022/11/10 01:13:52;;;;;;;19.95;3.42;;;;;;;;;;6174207;23;20009;-91
2022/11/10 01:16:20;;;;;;;16.83;3.05;;;;;;;;;;6176626;23;20016;-90
2022/11/10 01:18:50;;;;;;;12.63;3.20;;;;;;;;;;6174515;23;20020;-90
2022/11/10 01:21:16;;;;;;;10.45;2.65;;;;;;;;;;6175196;23;20012;-90
2022/11/10 01:23:42;;;;;;;6.75;2.33;;;;;;;;;;6173519;23;20579;-90
2022/11/10 01:26:08;;;;;;;18.90;3.92;;;;;;;;;;6150837;23;20013;-91
2022/11/10 01:28:35;;;;;;;12.65;2.95;;;;;;;;;;6148629;23;20008;-91
2022/11/10 01:31:03;;;;;;;25.48;3.85;;;;;;;;;;6175678;23;20009;-91
2022/11/10 01:33:35;;;;;;;19.15;2.85;;;;;;;;;;6171308;23;20480;-91
2022/11/10 01:36:01;;;;;;;11.10;3.20;;;;;;;;;;6151516;23;20005;-91
2022/11/10 01:38:31;;;;;;;11.35;2.78;;;;;;;;;;6169988;23;20066;-91
2022/11/10 01:40:58;;;;;;;13.98;3.40;;;;;;;;;;6173819;23;20004;-91
2022/11/10 01:43:24;;;;;;;21.10;3.53;;;;;;;;;;6175688;23;20687;-91
2022/11/10 01:46:07;;;;;;;17.83;3.60;;;;;;;;;;6177944;23;20224;-90
2022/11/10 01:48:38;;;;;;;24.70;3.85;;;;;;;;;;6176488;23;20038;-90
2022/11/10 01:51:10;;;;;;;9.15;3.22;;;;;;;;;;6174440;23;20071;-89
2022/11/10 01:53:39;;;;;;;13.18;4.03;;;;;;;;;;6174578;23;20009;-89
2022/11/10 01:56:07;;;;;;;20.23;4.32;;;;;;;;;;6176962;23;20009;-89
2022/11/10 01:58:38;;;;;;;30.60;4.07;;;;;;;;;;6173556;23;20037;-89
2022/11/10 02:01:05;;;;;;;23.15;4.20;;;;;;;;;;6173287;23;20426;-89
2022/11/10 02:03:51;;;;;;;17.73;2.63;;;;;;;;;;6174263;23;20488;-89
2022/11/10 02:06:18;;;;;;;27.15;5.75;;;;;;;;;;6173186;23;20063;-89
2022/11/10 02:08:45;;;;;;;16.88;4.65;;;;;;;;;;6172591;22;20062;-89
2022/11/10 02:11:11;;;;;;;29.20;4.57;;;;;;;;;;6172093;23;20009;-89
2022/11/10 02:13:37;;;;;;;14.77;3.50;;;;;;;;;;6173125;23;20036;-90
2022/11/10 02:16:03;;;;;;;17.83;3.72;;;;;;;;;;6169499;23;20444;-89
2022/11/10 02:18:29;;;;;;;24.40;4.50;;;;;;;;;;6148543;23;20422;-89
2022/11/10 02:20:55;;;;;;;21.17;3.80;;;;;;;;;;6173294;23;20369;-89
2022/11/10 02:23:33;;;;;;;24.45;4.45;;;;;;;;;;6146732;23;20009;-89
2022/11/10 02:26:00;;;;;;;16.27;4.63;;;;;;;;;;6177824;23;20032;-90
2022/11/10 02:28:27;;;;;;;28.55;4.03;;;;;;;;;;6178552;23;20091;-90
2022/11/10 02:30:53;;;;;;;22.90;4.05;;;;;;;;;;6175909;23;20512;-89
2022/11/10 02:33:19;;;;;;;26.08;4.75;;;;;;;;;;6178539;23;20552;-91
2022/11/10 02:35:46;;;;;;;30.05;4.47;;;;;;;;;;6177877;23;20076;-91
2022/11/10 02:38:13;;;;;;;18.40;3.88;;;;;;;;;;6176382;23;20044;-90
2022/11/10 02:40:39;;;;;;;14.05;3.70;;;;;;;;;;6178461;23;20016;-91
2022/11/10 02:43:06;;;;;;;18.08;4.60;;;;;;;;;;6177141;23;20020;-90
2022/11/10 02:45:32;;;;;;;24.35;4.53;;;;;;;;;;6151427;23;20635;-90
2022/11/10 02:47:58;;;;;;;23.17;4.70;;;;;;;;;;6151378;23;20009;-90
2022/11/10 02:50:24;;;;;;;24.58;4.32;;;;;;;;;;6153096;23;20135;-90
2022/11/10 02:52:50;;;;;;;24.75;5.65;;;;;;;;;;6169753;23;20001;-90
2022/11/10 02:55:16;;;;;;;10.23;3.42;;;;;;;;;;6142791;23;20452;-90
2022/11/10 02:57:42;;;;;;;27.05;3.70;;;;;;;;;;6153635;23;20009;-90
2022/11/10 03:00:08;;;;;;;21.02;3.75;;;;;;;;;;6153222;23;20013;-90
2022/11/10 03:02:34;;;;;;;23.10;3.95;;;;;;;;;;6178307;23;20128;-90
2022/11/10 03:05:01;;;;;;;25.05;4.97;;;;;;;;;;6176575;23;20390;-90
2022/11/10 03:07:27;;;;;;;23.67;3.83;;;;;;;;;;6156455;23;20017;-91
2022/11/10 03:09:53;;;;;;;14.18;4.47;;;;;;;;;;6150341;23;20115;-90
2022/11/10 03:12:19;;;;;;;19.83;4.97;;;;;;;;;;6153481;23;20040;-91
2022/11/10 03:14:45;;;;;;;19.73;4.50;;;;;;;;;;6153016;23;20009;-91
2022/11/10 03:17:11;;;;;;;17.85;2.92;;;;;;;;;;6173725;23;20426;-90
2022/11/10 03:19:37;;;;;;;34.42;4.90;;;;;;;;;;6154159;23;20047;-90
2022/11/10 03:22:03;;;;;;;17.58;5.00;;;;;;;;;;6179547;23;20103;-91
2022/11/10 03:24:29;;;;;;;16.33;2.65;;;;;;;;;;6154320;23;20464;-90
2022/11/10 03:26:55;;;;;;;16.58;4.07;;;;;;;;;;6154017;23;20017;-90
2022/11/10 03:29:21;;;;;;;29.33;4.97;;;;;;;;;;6154979;23;20037;-90
2022/11/10 03:31:47;;;;;;;31.50;6.28;;;;;;;;;;6153791;23;20005;-90
2022/11/10 03:34:13;;;;;;;18.02;3.35;;;;;;;;;;6150901;23;20024;-90
2022/11/10 03:36:39;;;;;;;13.60;4.05;;;;;;;;;;6154115;23;20009;-90
2022/11/10 03:39:05;;;;;;;28.08;4.45;;;;;;;;;;6152363;23;20009;-90
2022/11/10 03:41:31;;;;;;;20.42;4.40;;;;;;;;;;6153045;23;20017;-90
2022/11/10 03:43:57;;;;;;;17.33;4.85;;;;;;;;;;6177404;23;20012;-91
2022/11/10 03:46:23;;;;;;;30.40;6.20;;;;;;;;;;6179892;23;20016;-90
2022/11/10 03:48:49;;;;;;;24.63;4.32;;;;;;;;;;6174849;23;20005;-91
2022/11/10 03:51:15;;;;;;;22.75;4.45;;;;;;;;;;6152686;23;20035;-92
2022/11/10 03:53:41;;;;;;;18.85;4.10;;;;;;;;;;6178752;23;20005;-90
2022/11/10 03:56:07;;;;;;;15.98;4.10;;;;;;;;;;6175268;23;20012;-90
2022/11/10 03:58:34;;;;;;;15.50;3.92;;;;;;;;;;6178311;23;20005;-90
2022/11/10 04:01:00;;;;;;;16.92;5.07;;;;;;;;;;6149556;23;20013;-90
2022/11/10 04:03:26;;;;;;;15.27;3.45;;;;;;;;;;6178612;23;20005;-90
2022/11/10 04:16:50;;;;;;;15.02;3.70;;;;;;;;;;6179141;23;20020;-91
2022/11/10 04:19:16;;;;;;;33.47;4.15;;;;;;;;;;6176618;23;20013;-90
2022/11/10 04:21:42;;;;;;;15.32;3.78;;;;;;;;;;6152165;23;20067;-91
2022/11/10 04:24:08;;;;;;;19.15;4.10;;;;;;;;;;6153176;23;20020;-91
2022/11/10 04:26:37;;;;;;;22.02;4.25;;;;;;;;;;6152238;23;20096;-90
2022/11/10 04:29:04;;;;;;;18.20;3.78;;;;;;;;;;6150019;23;20017;-90
2022/11/10 04:31:38;;;;;;;31.08;5.50;;;;;;;;;;6173836;23;20441;-90
2022/11/10 04:34:08;;;;;;;27.15;5.18;;;;;;;;;;6174632;23;20092;-90
2022/11/10 04:36:36;;;;;;;22.42;4.63;;;;;;;;;;6177217;23;20008;-91
2022/11/10 04:39:03;;;;;;;23.10;5.43;;;;;;;;;;6177413;23;20448;-91
2022/11/10 04:41:30;;;;;;;7.25;2.78;;;;;;;;;;6150057;23;20020;-91
2022/11/10 04:43:56;;;;;;;27.38;4.93;;;;;;;;;;6176952;23;20348;-90
2022/11/10 04:46:27;;;;;;;23.52;4.53;;;;;;;;;;6177465;23;20084;-90
2022/11/10 04:48:54;;;;;;;19.85;4.88;;;;;;;;;;6175515;23;20012;-91
2022/11/10 04:51:21;;;;;;;15.52;5.00;;;;;;;;;;6149395;23;20012;-91
2022/11/10 04:53:47;;;;;;;27.85;5.35;;;;;;;;;;6177821;23;20011;-90
2022/11/10 04:56:20;;;;;;;19.23;4.82;;;;;;;;;;6151234;23;20009;-91
2022/11/10 04:58:47;;;;;;;20.30;4.68;;;;;;;;;;6176977;23;20012;-90
2022/11/10 05:01:14;;;;;;;15.40;4.75;;;;;;;;;;6175604;23;20004;-90
2022/11/10 05:03:40;;;;;;;35.83;5.35;;;;;;;;;;6176378;23;20342;-89
2022/11/10 05:06:07;;;;;;;16.83;5.03;;;;;;;;;;6171038;23;20384;-90
2022/11/10 05:08:33;;;;;;;22.55;4.32;;;;;;;;;;6178147;22;20013;-90
2022/11/10 05:10:59;;;;;;;25.38;5.55;;;;;;;;;;6152238;23;20023;-90
2022/11/10 05:13:58;;;;;;;34.57;8.40;;;;;;;;;;4767895;27;8315220;-90
2022/11/10 05:16:24;;;;;;;31.33;6.05;;;;;;;;;;5004558;28;22207;-90
2022/11/10 05:18:53;;;;;;;26.95;6.07;;;;;;;;;;5026060;28;20033;-89
2022/11/10 05:21:19;;;;;;;24.95;5.43;;;;;;;;;;5008456;28;20377;-90
2022/11/10 05:23:45;;;;;;;40.95;6.15;;;;;;;;;;5023817;28;20044;-90
2022/11/10 05:26:12;;;;;;;29.13;5.30;;;;;;;;;;5003668;28;20087;-91
2022/11/10 05:28:40;;;;;;;18.70;4.95;;;;;;;;;;5022413;28;20540;-90
2022/11/10 05:31:06;;;;;;;28.00;4.78;;;;;;;;;;5018149;28;20029;-89
2022/11/10 05:33:32;;;;;;;24.63;3.72;;;;;;;;;;5039307;28;20033;-89
2022/11/10 05:35:59;;;;;;;24.58;5.03;;;;;;;;;;5006980;28;20034;-90
2022/11/10 05:38:25;;;;;;;13.25;4.47;;;;;;;;;;5015571;28;20025;-88
2022/11/10 05:40:51;;;;;;;19.85;5.18;;;;;;;;;;5022561;28;20060;-90
2022/11/10 05:43:17;;;;;;;18.90;5.45;;;;;;;;;;5026496;28;20510;-89
2022/11/10 05:45:43;;;;;;;22.10;3.97;;;;;;;;;;5021749;28;20085;-89
2022/11/10 05:48:09;;;;;;;20.35;4.45;;;;;;;;;;5001935;28;20045;-89
2022/11/10 05:50:35;;;;;;;34.30;6.00;;;;;;;;;;5005035;28;20033;-90
2022/11/10 05:53:01;;;;;;;31.42;3.90;;;;;;;;;;5023192;28;20713;-90
2022/11/10 05:55:28;;;;;;;32.05;5.32;;;;;;;;;;5020081;28;20100;-93
2022/11/10 05:57:55;;;;;;;25.30;4.45;;;;;;;;;;5018399;28;20033;-92
2022/11/10 06:00:22;;;;;;;8.05;2.65;;;;;;;;;;5022256;28;20025;-90
2022/11/10 06:03:03;;;;;;;25.90;4.85;;;;;;;;;;5018466;28;20040;-91
2022/11/10 06:05:30;;;;;;;25.48;4.95;;;;;;;;;;5021345;28;20028;-91
2022/11/10 06:07:57;;;;;;;24.65;5.03;;;;;;;;;;5033925;28;20670;-89
2022/11/10 06:10:23;;;;;;;28.77;4.60;;;;;;;;;;5007151;28;20041;-89
2022/11/10 06:12:50;;;;;;;10.48;2.45;;;;;;;;;;5017490;28;20611;-90
2022/11/10 06:15:16;;;;;;;26.90;4.20;;;;;;;;;;4996474;28;20839;-90
2022/11/10 06:17:42;;;;;;;29.63;4.97;;;;;;;;;;4976549;28;20101;-89
2022/11/10 06:20:09;;;;;;;29.85;4.25;;;;;;;;;;4996085;28;20484;-89
2022/11/10 06:22:35;;;;;;;33.40;4.97;;;;;;;;;;4979035;28;20474;-89
2022/11/10 06:25:01;;;;;;;25.88;5.15;;;;;;;;;;4966333;28;20369;-89
2022/11/10 06:27:27;;;;;;;28.25;4.03;;;;;;;;;;4989414;28;20373;-92
2022/11/10 06:29:53;;;;;;;15.98;3.08;;;;;;;;;;4991028;28;20484;-88
2022/11/10 06:32:19;;;;;;;15.00;2.78;;;;;;;;;;4980887;28;20465;-89
2022/11/10 06:34:45;;;;;;;26.42;4.25;;;;;;;;;;4977572;28;20097;-89
2022/11/10 06:37:11;;;;;;;12.25;3.00;;;;;;;;;;4992977;28;20085;-89
2022/11/10 06:39:37;;;;;;;26.05;3.47;;;;;;;;;;4976729;28;20480;-89
2022/11/10 06:42:03;;;;;;;29.13;4.65;;;;;;;;;;5005682;28;20026;-90
2022/11/10 06:44:29;;;;;;;23.90;3.95;;;;;;;;;;4971839;28;20161;-89
2022/11/10 06:46:55;;;;;;;25.65;4.18;;;;;;;;;;4975879;28;20038;-89
2022/11/10 06:49:21;;;;;;;24.88;3.88;;;;;;;;;;4982228;28;20048;-89
2022/11/10 06:51:47;;;;;;;17.35;3.80;;;;;;;;;;4989868;28;20037;-89
2022/11/10 06:54:14;;;;;;;27.00;4.13;;;;;;;;;;5010316;28;20169;-89
2022/11/10 06:56:40;;;;;;;35.00;4.82;;;;;;;;;;4971767;28;20304;-89
2022/11/10 06:59:06;;;;;;;35.42;5.57;;;;;;;;;;4972369;28;20026;-88
2022/11/10 07:01:32;;;;;;;22.58;4.20;;;;;;;;;;5006852;28;20018;-88
2022/11/10 07:03:58;;;;;;;15.52;3.97;;;;;;;;;;4975332;28;20511;-88
2022/11/10 07:06:24;;;;;;;31.73;4.68;;;;;;;;;;4987911;28;20305;-88
2022/11/10 07:08:50;;;;;;;20.80;3.45;;;;;;;;;;4989194;28;20496;-88
2022/11/10 07:11:16;;;;;;;16.27;3.70;;;;;;;;;;4993810;28;20025;-88
2022/11/10 07:13:49;;;;;;;22.48;4.35;;;;;;;;;;5002091;28;20061;-88
2022/11/10 07:16:15;;;;;;;21.92;4.43;;;;;;;;;;4982484;28;20976;-88
2022/11/10 07:18:41;;;;;;;26.23;4.30;;;;;;;;;;5002495;28;20494;-88
2022/11/10 07:21:07;;;;;;;25.10;4.85;;;;;;;;;;4984637;28;20029;-88
2022/11/10 07:23:33;;;;;;;20.17;3.97;;;;;;;;;;4967542;28;20048;-87
2022/11/10 07:26:00;;;;;;;14.48;3.97;;;;;;;;;;4975546;28;20562;-88
2022/11/10 07:28:26;;;;;;;20.92;3.90;;;;;;;;;;4987677;28;20065;-88
2022/11/10 07:30:52;;;;;;;29.13;4.43;;;;;;;;;;4984426;28;20033;-87
2022/11/10 07:33:18;;;;;;;34.60;5.25;;;;;;;;;;4985177;28;20108;-90
2022/11/10 07:35:50;;;;;;;40.00;4.97;;;;;;;;;;4972294;28;20022;-87
2022/11/10 07:38:16;;;;;;;31.70;5.47;;;;;;;;;;5000820;28;20033;-87
2022/11/10 07:40:42;;;;;;;17.27;3.38;;;;;;;;;;4985302;28;20398;-88
2022/11/10 07:43:08;;;;;;;34.58;5.18;;;;;;;;;;4989376;28;20124;-87
2022/11/10 07:45:34;;;;;;;33.38;5.25;;;;;;;;;;4965612;28;20181;-88
2022/11/10 07:48:07;;;;;;;14.23;4.03;;;;;;;;;;4987621;28;20486;-88
2022/11/10 07:50:33;;;;;;;27.00;4.10;;;;;;;;;;4977408;28;20030;-87
2022/11/10 07:53:26;;;;;;;26.50;4.88;;;;;;;;;;4982479;28;20033;-88
2022/11/10 07:55:52;;;;;;;36.65;6.65;;;;;;;;;;4972877;28;20045;-88
2022/11/10 07:58:18;;;;;;;18.00;3.67;;;;;;;;;;4973517;28;20524;-88
2022/11/10 08:00:51;;;;;;;29.27;5.82;;;;;;;;;;4991903;28;20034;-87
2022/11/10 08:03:18;;;;;;;21.33;4.13;;;;;;;;;;4997714;28;20034;-88
2022/11/10 08:05:44;;;;;;;19.40;4.22;;;;;;;;;;4980910;28;20124;-88
2022/11/10 08:08:11;;;;;;;20.08;3.63;;;;;;;;;;4982257;28;20060;-88
2022/11/10 08:10:37;;;;;;;28.38;5.03;;;;;;;;;;4981701;28;20064;-88
2022/11/10 08:13:18;;;;;;;24.38;4.13;;;;;;;;;;4983292;28;20113;-88
2022/11/10 08:15:44;;;;;;;26.88;4.32;;;;;;;;;;4985611;28;20524;-88
2022/11/10 08:18:18;;;;;;;22.55;4.45;;;;;;;;;;4965239;28;20046;-88
2022/11/10 08:20:44;;;;;;;26.52;4.00;;;;;;;;;;4982108;28;20711;-88
2022/11/10 08:23:11;;;;;;;22.98;4.18;;;;;;;;;;4981529;28;20037;-88
2022/11/10 08:25:37;;;;;;;19.08;3.90;;;;;;;;;;4997198;28;20053;-88
2022/11/10 08:28:08;;;;;;;22.92;3.58;;;;;;;;;;4986111;28;20400;-88
2022/11/10 08:30:35;;;;;;;18.75;3.67;;;;;;;;;;4983774;28;20041;-88
2022/11/10 08:33:03;;;;;;;18.15;4.22;;;;;;;;;;4980108;28;20029;-87
2022/11/10 08:35:30;;;;;;;21.35;2.92;;;;;;;;;;4969919;28;20480;-88
2022/11/10 08:37:56;;;;;;;19.80;4.10;;;;;;;;;;4979232;28;20026;-89
2022/11/10 08:40:26;;;;;;;23.02;4.18;;;;;;;;;;4981585;28;20393;-88
2022/11/10 08:43:02;;;;;;;15.10;3.72;;;;;;;;;;4978383;28;20026;-88
2022/11/10 08:45:29;;;;;;;29.50;4.72;;;;;;;;;;4981290;28;20022;-88
2022/11/10 08:47:58;;;;;;;24.00;5.15;;;;;;;;;;5001463;28;20414;-88
2022/11/10 08:50:25;;;;;;;34.28;5.03;;;;;;;;;;4964170;28;20037;-89
2022/11/10 08:52:51;;;;;;;11.20;2.83;;;;;;;;;;4965040;28;20146;-88
2022/11/10 08:55:18;;;;;;;25.75;4.72;;;;;;;;;;4983738;28;20559;-88
2022/11/10 08:57:45;;;;;;;25.23;5.00;;;;;;;;;;4975851;28;20034;-88
2022/11/10 09:00:12;;;;;;;16.50;4.20;;;;;;;;;;4998786;28;20084;-88
2022/11/10 09:02:38;;;;;;;27.98;4.15;;;;;;;;;;4969365;28;20509;-88
2022/11/10 09:05:04;;;;;;;17.48;4.57;;;;;;;;;;4980006;28;20107;-88
2022/11/10 09:07:31;;;;;;;18.35;3.30;;;;;;;;;;4985358;28;20472;-88
2022/11/10 09:09:57;;;;;;;20.45;4.05;;;;;;;;;;4967469;28;20157;-88
2022/11/10 09:12:23;;;;;;;17.52;4.38;;;;;;;;;;4965876;28;20042;-88
2022/11/10 09:14:49;;;;;;;29.27;4.78;;;;;;;;;;4981081;28;20085;-88
2022/11/10 09:17:15;;;;;;;22.67;5.63;;;;;;;;;;4975967;28;20026;-88
2022/11/10 09:19:41;;;;;;;19.98;3.85;;;;;;;;;;4979768;28;20084;-88
2022/11/10 09:22:08;;;;;;;37.00;4.53;;;;;;;;;;4965900;28;20069;-88
2022/11/10 09:24:34;;;;;;;16.67;5.07;;;;;;;;;;4968546;28;20528;-88
2022/11/10 09:27:00;;;;;;;11.55;2.78;;;;;;;;;;4965880;28;20121;-88
2022/11/10 09:29:27;;;;;;;17.67;4.68;;;;;;;;;;4977693;28;20530;-88
2022/11/10 09:31:53;;;;;;;27.98;3.88;;;;;;;;;;4967660;28;20494;-88
2022/11/10 09:34:19;;;;;;;13.57;2.65;;;;;;;;;;4960446;28;20501;-88
2022/11/10 09:36:45;;;;;;;16.27;3.38;;;;;;;;;;4967786;28;20506;-88
2022/11/10 09:39:11;;;;;;;19.33;4.43;;;;;;;;;;4971188;28;20056;-88
2022/11/10 09:41:42;;;;;;;17.77;3.13;;;;;;;;;;4966968;28;20812;-88
2022/11/10 09:44:16;;;;;;;21.40;3.95;;;;;;;;;;4980479;28;20068;-88
2022/11/10 09:46:44;;;;;;;21.35;4.65;;;;;;;;;;4978330;28;20267;-88
2022/11/10 09:49:29;;;;;;;20.60;3.95;;;;;;;;;;4979356;28;20026;-88
2022/11/10 09:51:57;;;;;;;19.10;4.75;;;;;;;;;;4983442;28;20124;-88
2022/11/10 09:54:41;;;;;;;25.92;4.00;;;;;;;;;;4982192;28;20022;-88
2022/11/10 09:57:10;;;;;;;17.20;4.65;;;;;;;;;;4984134;28;20029;-88
2022/11/10 09:59:36;;;;;;;21.27;5.15;;;;;;;;;;4981259;28;20029;-88
2022/11/10 10:02:21;;;;;;;19.67;5.47;;;;;;;;;;4990508;28;20477;-88
2022/11/10 10:05:03;;;;;;;12.98;4.63;;;;;;;;;;4988852;28;20038;-88
2022/11/10 10:07:46;;;;;;;25.10;5.85;;;;;;;;;;4984210;28;20034;-88
2022/11/10 10:10:16;;;;;;;27.60;5.95;;;;;;;;;;4988471;28;20494;-88
2022/11/10 10:12:42;;;;;;;10.13;2.90;;;;;;;;;;4987844;28;20397;-88
2022/11/10 10:15:34;;;;;;;20.80;5.80;;;;;;;;;;5004502;28;20528;-88
2022/11/10 10:18:09;;;;;;;20.88;6.82;;;;;;;;;;4997344;28;20416;-88
2022/11/10 10:20:35;;;;;;;24.13;4.95;;;;;;;;;;5003149;28;20030;-88
2022/11/10 10:23:19;;;;;;;29.75;5.78;;;;;;;;;;4993398;28;20046;-88
2022/11/10 10:25:46;;;;;;;26.52;5.45;;;;;;;;;;4998891;28;20038;-89
2022/11/10 10:28:15;;;;;;;28.17;6.18;;;;;;;;;;4989376;28;20045;-89
2022/11/10 10:30:42;;;;;;;21.52;3.58;;;;;;;;;;5000075;28;20029;-88
2022/11/10 10:33:13;;;;;;;16.52;4.72;;;;;;;;;;5002453;28;20052;-88
2022/11/10 10:35:47;;;;;;;28.33;5.45;;;;;;;;;;5008314;28;20037;-88
2022/11/10 10:38:16;;;;;;;25.83;4.90;;;;;;;;;;4989919;28;20046;-88
2022/11/10 10:40:43;;;;;;;16.42;5.05;;;;;;;;;;5010285;28;20030;-88
2022/11/10 10:43:09;;;;;;;22.08;5.18;;;;;;;;;;4980352;28;20037;-88
2022/11/10 10:45:40;;;;;;;15.55;4.55;;;;;;;;;;5000814;28;20036;-88
2022/11/10 10:48:27;;;;;;;28.17;5.90;;;;;;;;;;5000332;28;20061;-88
2022/11/10 10:50:53;;;;;;;;;;;;;;;;;;5003970;28;20064;-88
2022/11/10 10:53:23;;;;;;;16.02;3.90;;;;;;;;;;4994223;28;19983;-88
2022/11/10 10:55:58;;;;;;;15.43;4.75;;;;;;;;;;5004632;28;20481;-88
2022/11/10 10:58:27;;;;;;;22.30;5.40;;;;;;;;;;5022381;28;20021;-88
2022/11/10 11:01:17;;;;;;;13.90;3.85;;;;;;;;;;5002972;28;20076;-88
2022/11/10 11:03:45;;;;;;;21.02;4.93;;;;;;;;;;5019168;28;20477;-88
2022/11/10 11:06:16;;;;;;;23.88;6.22;;;;;;;;;;4990858;28;20034;-88
2022/11/10 11:08:53;;;;;;;22.90;5.03;;;;;;;;;;5021398;28;20476;-88
2022/11/10 11:11:23;;;;;;;16.98;4.93;;;;;;;;;;5001672;28;20068;-88
2022/11/10 11:13:49;;;;;;;12.05;3.80;;;;;;;;;;5008938;28;20053;-89
2022/11/10 11:16:15;;;;;;;18.80;4.75;;;;;;;;;;5003857;28;20366;-89
2022/11/10 11:18:41;;;;;;;25.88;5.13;;;;;;;;;;4989480;28;20083;-89
2022/11/10 11:21:20;;;;;;;13.23;4.10;;;;;;;;;;4987414;28;20375;-89
2022/11/10 11:24:01;;;;;;;31.10;5.00;;;;;;;;;;5002004;28;20120;-89
2022/11/10 11:26:31;;;;;;;14.75;4.53;;;;;;;;;;5006765;28;20033;-88
2022/11/10 11:29:00;;;;;;;20.10;3.65;;;;;;;;;;4993901;28;20033;-89
2022/11/10 11:31:44;;;;;;;48.80;8.75;;;;;;;;;;5004530;28;20480;-90
2022/11/10 11:34:38;;;;;;;19.55;3.90;;;;;;;;;;5000568;28;20816;-89
2022/11/10 11:37:12;;;;;;;19.88;3.75;;;;;;;;;;5016505;28;20055;-89
2022/11/10 11:39:56;;;;;;;20.05;4.15;;;;;;;;;;5005823;28;20045;-90
2022/11/10 11:42:52;;;;;;;14.63;2.33;;;;;;;;;;5000243;28;20042;-90
2022/11/10 11:45:21;;;;;;;11.93;3.60;;;;;;;;;;4944955;28;20047;-90
2022/11/10 11:47:53;;;;;;;24.90;3.78;;;;;;;;;;5012080;28;20460;-89
2022/11/10 11:50:27;;;;;;;10.65;2.90;;;;;;;;;;5000341;28;20029;-89
2022/11/10 11:52:53;;;;;;;21.77;4.32;;;;;;;;;;5005240;28;20029;-90
2022/11/10 11:55:25;;;;;;;14.63;3.70;;;;;;;;;;5006807;28;20536;-89
2022/11/10 11:57:57;;;;;;;16.60;3.63;;;;;;;;;;5003115;28;20100;-89
2022/11/10 12:00:24;;;;;;;17.30;4.07;;;;;;;;;;5020332;28;20018;-90
2022/11/10 12:02:53;;;;;;;12.13;3.80;;;;;;;;;;4991616;28;20084;-90
2022/11/10 12:05:22;;;;;;;15.50;3.97;;;;;;;;;;5004612;28;20516;-90
2022/11/10 12:07:51;;;;;;;28.45;5.57;;;;;;;;;;4999547;28;20511;-90
2022/11/10 12:10:26;;;;;;;22.25;4.65;;;;;;;;;;5005505;28;20029;-90
2022/11/10 12:13:14;;;;;;;18.83;4.18;;;;;;;;;;5005200;28;20037;-90
2022/11/10 12:15:57;;;;;;;25.85;4.47;;;;;;;;;;5007654;28;20050;-90
2022/11/10 12:18:23;;;;;;;18.20;2.78;;;;;;;;;;5003872;28;20034;-90
2022/11/10 12:20:50;;;;;;;24.75;3.55;;;;;;;;;;4983882;28;20596;-90
2022/11/10 12:23:16;;;;;;;18.52;4.25;;;;;;;;;;4996738;28;20040;-90
2022/11/10 12:25:52;;;;;;;41.42;3.88;;;;;;;;;;4994747;28;20141;-90
2022/11/10 12:28:29;;;;;;;23.52;4.90;;;;;;;;;;4985476;28;20038;-90
2022/11/10 12:30:58;;;;;;;18.55;3.53;;;;;;;;;;4983811;28;20029;-89
2022/11/10 12:33:35;;;;;;;13.95;4.28;;;;;;;;;;4999668;28;20733;-90
2022/11/10 12:36:03;;;;;;;18.30;3.40;;;;;;;;;;4984974;28;20022;-90
2022/11/10 12:38:44;;;;;;;16.52;3.40;;;;;;;;;;4977609;28;20036;-90
2022/11/10 12:41:17;;;;;;;22.40;4.13;;;;;;;;;;4982646;28;20120;-90
2022/11/10 12:44:04;;;;;;;23.02;3.13;;;;;;;;;;4989087;28;20065;-90
2022/11/10 12:46:30;;;;;;;;;;;;;;;;;;4971042;28;20259;-90
2022/11/10 12:49:15;;;;;;;11.13;2.45;;;;;;;;;;4990853;28;20057;-90
2022/11/10 12:51:54;;;;;;;22.02;4.63;;;;;;;;;;4984629;28;20064;-90
2022/11/10 12:54:21;;;;;;;20.25;3.47;;;;;;;;;;4984969;28;20741;-89
2022/11/10 12:56:51;;;;;;;14.63;2.90;;;;;;;;;;4988441;28;20425;-90
2022/11/10 12:59:20;;;;;;;14.32;2.35;;;;;;;;;;4984839;28;20040;-90
2022/11/10 13:01:48;;;;;;;19.58;3.78;;;;;;;;;;4996264;28;20033;-90
2022/11/10 13:04:15;;;;;;;16.52;2.80;;;;;;;;;;4982201;28;20081;-90
2022/11/10 13:06:52;;;;;;;9.63;1.95;;;;;;;;;;4981870;28;20494;-90
2022/11/10 13:09:26;;;;;;;23.50;3.20;;;;;;;;;;4987368;28;20097;-90
2022/11/10 13:12:11;;;;;;;15.85;3.13;;;;;;;;;;4985899;28;20028;-90
2022/11/10 13:14:37;;;;;;;18.70;3.25;;;;;;;;;;4982525;28;20050;-90
2022/11/10 13:17:05;;;;;;;12.13;2.95;;;;;;;;;;4971415;28;20038;-90
2022/11/10 13:19:32;;;;;;;16.10;3.72;;;;;;;;;;4979923;28;20026;-88
2022/11/10 13:22:02;;;;;;;21.70;3.45;;;;;;;;;;5002270;28;20049;-89
2022/11/10 13:24:31;;;;;;;16.58;3.28;;;;;;;;;;4978600;28;20044;-88
2022/11/10 13:26:58;;;;;;;13.75;2.72;;;;;;;;;;4980286;28;20030;-89
2022/11/10 13:29:35;;;;;;;29.27;3.05;;;;;;;;;;4985290;28;20042;-88
2022/11/10 13:32:07;;;;;;;19.33;3.15;;;;;;;;;;4984534;28;20041;-88
2022/11/10 13:34:37;;;;;;;14.07;1.92;;;;;;;;;;4985484;28;20474;-88
2022/11/10 13:37:23;;;;;;;13.57;2.95;;;;;;;;;;5005835;28;20129;-89
2022/11/10 13:39:49;;;;;;;16.15;3.05;;;;;;;;;;5003749;28;20178;-88
2022/11/10 13:42:18;;;;;;;14.73;2.70;;;;;;;;;;4974222;28;20026;-88
2022/11/10 13:44:46;;;;;;;22.58;2.50;;;;;;;;;;4984799;28;20113;-88
2022/11/10 13:47:34;;;;;;;14.27;3.17;;;;;;;;;;4988838;28;20030;-88
2022/11/10 13:50:00;;;;;;;24.85;3.30;;;;;;;;;;4985152;28;20061;-88
2022/11/10 13:52:26;;;;;;;17.73;2.72;;;;;;;;;;4985648;28;20038;-88
2022/11/10 13:54:52;;;;;;;15.30;2.47;;;;;;;;;;4990290;28;20033;-88
2022/11/10 13:57:25;;;;;;;23.70;2.90;;;;;;;;;;4993683;28;20040;-88
2022/11/10 13:59:55;;;;;;;7.82;2.08;;;;;;;;;;5000094;28;20077;-88
2022/11/10 14:02:35;;;;;;;10.70;2.17;;;;;;;;;;4991251;28;20196;-88
2022/11/10 14:05:01;;;;;;;17.02;2.97;;;;;;;;;;4987959;28;20672;-88
2022/11/10 14:07:29;;;;;;;15.25;3.75;;;;;;;;;;4984420;28;20021;-88
2022/11/10 14:10:02;;;;;;;10.82;3.05;;;;;;;;;;4987623;28;20030;-88
2022/11/10 14:12:33;;;;;;;20.58;2.92;;;;;;;;;;4982858;28;20037;-88
2022/11/10 14:15:13;;;;;;;17.27;3.25;;;;;;;;;;4993217;28;20100;-88
2022/11/10 14:17:47;;;;;;;11.57;2.75;;;;;;;;;;4977208;28;20145;-88
2022/11/10 14:20:25;;;;;;;22.20;3.20;;;;;;;;;;4981720;28;20106;-88
2022/11/10 14:22:53;;;;;;;15.95;2.70;;;;;;;;;;5003677;28;20552;-88
2022/11/10 14:25:45;;;;;;;18.98;3.05;;;;;;;;;;4986297;28;20482;-89
2022/11/10 14:28:24;;;;;;;13.93;2.83;;;;;;;;;;4979950;28;20049;-88
2022/11/10 14:30:51;;;;;;;13.68;2.53;;;;;;;;;;4981558;28;20026;-88
2022/11/10 14:33:18;;;;;;;17.25;2.80;;;;;;;;;;5001497;28;21097;-88
2022/11/10 14:35:52;;;;;;;20.80;3.35;;;;;;;;;;4970485;28;20118;-88
2022/11/10 14:38:20;;;;;;;16.65;3.03;;;;;;;;;;4985518;28;20687;-88
2022/11/10 14:40:47;;;;;;;11.38;2.38;;;;;;;;;;4992561;28;20447;-88
2022/11/10 14:43:27;;;;;;;15.23;2.40;;;;;;;;;;4984204;28;20410;-88
2022/11/10 14:45:53;;;;;;;18.65;2.92;;;;;;;;;;4986635;28;20034;-89
2022/11/10 14:48:21;;;;;;;14.77;2.70;;;;;;;;;;4985749;28;20274;-88
2022/11/10 14:50:47;;;;;;;14.80;2.60;;;;;;;;;;4984663;28;20038;-88
2022/11/10 14:53:17;;;;;;;15.73;3.70;;;;;;;;;;5000035;28;20040;-88
2022/11/10 14:55:44;;;;;;;11.30;3.13;;;;;;;;;;4990016;28;20077;-89